createdAt,value
2023-02-06T00:04:14.825Z,-7.02
2023-02-06T00:09:22.838Z,-7.00
2023-02-06T00:14:29.704Z,-7.03
2023-02-06T00:19:36.376Z,-7.23
2023-02-06T00:24:44.503Z,-7.30
2023-02-06T00:29:51.163Z,-7.30
2023-02-06T00:34:58.018Z,-7.18
2023-02-06T00:40:06.795Z,-7.33
2023-02-06T00:45:14.264Z,-7.19
2023-02-06T00:50:22.667Z,-7.16
2023-02-06T00:55:30.744Z,-7.23
2023-02-06T01:00:37.605Z,-7.12
2023-02-06T01:05:44.343Z,-7.23
2023-02-06T01:10:52.126Z,-7.12
2023-02-06T01:15:58.336Z,-7.23
2023-02-06T01:21:08.658Z,-7.12
2023-02-06T01:26:19.533Z,-6.96
2023-02-06T01:31:27.901Z,-7.03
2023-02-06T01:36:34.217Z,-7.02
2023-02-06T01:41:41.927Z,-7.08
2023-02-06T01:46:52.304Z,-7.19
2023-02-06T01:52:04.608Z,-7.19
2023-02-06T01:57:14.795Z,-7.31
2023-02-06T02:02:21.179Z,-7.28
2023-02-06T02:07:33.890Z,-7.21
2023-02-06T02:12:41.756Z,-7.56
2023-02-06T02:17:57.989Z,-7.42
2023-02-06T02:23:19.924Z,-7.40
2023-02-06T02:29:16.624Z,-7.66
2023-02-06T02:35:09.589Z,-7.60
2023-02-06T02:40:26.928Z,-7.76
2023-02-06T02:45:42.121Z,-7.75
2023-02-06T02:50:49.975Z,-7.73
2023-02-06T02:55:56.663Z,-7.82
2023-02-06T03:01:11.759Z,-7.91
2023-02-06T03:06:40.564Z,-7.91
2023-02-06T03:11:57.529Z,-7.83
2023-02-06T03:17:10.892Z,-7.72
2023-02-06T03:22:19.572Z,-7.75
2023-02-06T03:27:27.465Z,-7.71
2023-02-06T03:32:36.540Z,-7.67
2023-02-06T03:37:44.416Z,-7.65
2023-02-06T03:42:55.236Z,-7.67
2023-02-06T03:48:04.341Z,-7.70
2023-02-06T03:53:14.783Z,-7.75
2023-02-06T03:58:22.050Z,-7.76
2023-02-06T04:03:29.820Z,-7.62
2023-02-06T04:08:37.430Z,-7.51
2023-02-06T04:13:43.487Z,-7.44
2023-02-06T04:18:49.529Z,-7.40
2023-02-06T04:23:57.065Z,-7.37
2023-02-06T04:29:03.221Z,-7.36
2023-02-06T04:34:09.795Z,-7.31
2023-02-06T04:39:17.361Z,-7.28
2023-02-06T04:44:24.196Z,-7.23
2023-02-06T04:49:30.463Z,-7.24
2023-02-06T04:54:38.256Z,-7.27
2023-02-06T04:59:44.598Z,-7.21
2023-02-06T05:04:50.784Z,-7.09
2023-02-06T05:09:58.596Z,-6.94
2023-02-06T05:15:05.340Z,-6.94
2023-02-06T05:20:13.248Z,-6.83
2023-02-06T05:25:21.509Z,-6.72
2023-02-06T05:30:27.931Z,-6.69
2023-02-06T05:35:35.050Z,-6.60
2023-02-06T05:40:43.057Z,-6.57
2023-02-06T05:45:49.460Z,-6.50
2023-02-06T05:50:55.673Z,-6.49
2023-02-06T05:56:03.592Z,-6.42
2023-02-06T06:01:09.915Z,-6.35
2023-02-06T06:06:16.322Z,-6.33
2023-02-06T06:11:24.137Z,-6.27
2023-02-06T06:16:30.631Z,-6.23
2023-02-06T06:21:37.096Z,-6.19
2023-02-06T06:26:45.128Z,-6.20
2023-02-06T06:31:51.408Z,-6.18
2023-02-06T06:36:57.757Z,-6.16
2023-02-06T06:42:05.758Z,-6.18
2023-02-06T06:47:12.225Z,-6.09
2023-02-06T06:52:25.056Z,-6.06
2023-02-06T06:57:34.960Z,-6.12
2023-02-06T07:02:42.065Z,-5.98
2023-02-06T07:07:48.819Z,-5.93
2023-02-06T07:12:57.066Z,-5.89
2023-02-06T07:18:03.506Z,-5.81
2023-02-06T07:23:09.712Z,-5.75
2023-02-06T07:28:17.469Z,-5.74
2023-02-06T07:33:23.788Z,-5.72
2023-02-06T07:38:29.968Z,-5.64
2023-02-06T07:43:37.623Z,-5.53
2023-02-06T07:48:44.016Z,-5.44
2023-02-06T07:53:50.980Z,-5.39
2023-02-06T07:58:58.461Z,-5.30
2023-02-06T08:04:04.725Z,-5.21
2023-02-06T08:09:14.253Z,-4.70
2023-02-06T08:14:28.819Z,-4.79
2023-02-06T08:19:34.983Z,-4.83
2023-02-06T08:24:41.314Z,-4.71
2023-02-06T08:29:49.160Z,-4.68
2023-02-06T08:34:55.383Z,-4.63
2023-02-06T08:40:01.607Z,-4.61
2023-02-06T08:45:11.699Z,-4.53
2023-02-06T08:50:18.906Z,-4.53
2023-02-06T08:55:25.137Z,-4.51
2023-02-06T09:00:33.159Z,-4.47
2023-02-06T09:05:39.519Z,-4.43
2023-02-06T09:10:45.767Z,-4.36
2023-02-06T09:15:56.142Z,-4.23
2023-02-06T09:21:10.390Z,-4.08
2023-02-06T09:26:19.418Z,-3.99
2023-02-06T09:31:29.377Z,-3.89
2023-02-06T09:36:37.856Z,-3.81
2023-02-06T09:41:47.041Z,-3.78
2023-02-06T09:46:59.760Z,-3.66
2023-02-06T09:52:25.981Z,-3.59
2023-02-06T09:57:47.494Z,-3.52
2023-02-06T10:03:41.535Z,-3.46
2023-02-06T10:08:57.084Z,-3.41
2023-02-06T10:14:07.190Z,-3.31
2023-02-06T10:19:22.818Z,-3.23
2023-02-06T10:24:41.196Z,-3.22
2023-02-06T10:29:49.238Z,-3.16
2023-02-06T10:35:26.435Z,-3.02
2023-02-06T10:40:47.084Z,-2.93
2023-02-06T10:46:07.293Z,-2.87
2023-02-06T10:51:26.375Z,-2.81
2023-02-06T10:56:40.865Z,-2.74
2023-02-06T11:01:49.004Z,-2.67
2023-02-06T11:07:06.023Z,-2.60
2023-02-06T11:12:31.135Z,-2.50
2023-02-06T11:17:37.538Z,-2.45
2023-02-06T11:22:52.757Z,-2.45
2023-02-06T11:28:01.917Z,-2.43
2023-02-06T11:33:10.824Z,-2.38
2023-02-06T11:38:19.776Z,-2.31
2023-02-06T11:43:27.593Z,-2.26
2023-02-06T11:48:40.577Z,-2.20
2023-02-06T11:54:03.190Z,-2.10
2023-02-06T11:59:23.434Z,-2.09
2023-02-06T12:04:36.975Z,-2.04
2023-02-06T12:09:44.683Z,-1.99
2023-02-06T12:14:56.053Z,-1.96
2023-02-06T12:20:09.622Z,-1.87
2023-02-06T12:25:31.527Z,-1.84
2023-02-06T12:30:51.662Z,-1.88
2023-02-06T12:35:59.814Z,-1.89
2023-02-06T12:41:29.028Z,-1.88
2023-02-06T12:46:35.703Z,-1.85
2023-02-06T12:51:50.693Z,-1.84
2023-02-06T12:57:05.879Z,-1.80
2023-02-06T13:02:26.319Z,-1.79
2023-02-06T13:07:41.550Z,-1.81
2023-02-06T13:13:00.606Z,-1.86
2023-02-06T13:18:52.882Z,-1.91
2023-02-06T13:24:21.279Z,-1.95
2023-02-06T13:29:29.901Z,-1.94
2023-02-06T13:34:36.287Z,-1.97
2023-02-06T13:39:42.698Z,-1.98
2023-02-06T13:44:50.947Z,-1.95
2023-02-06T13:50:48.303Z,-1.97
2023-02-06T13:56:18.777Z,-1.99
2023-02-06T14:01:31.551Z,-1.99
2023-02-06T14:07:07.691Z,-2.01
2023-02-06T14:12:34.489Z,-2.06
2023-02-06T14:18:00.787Z,-2.06
2023-02-06T14:23:17.962Z,-2.10
2023-02-06T14:28:34.295Z,-2.11
2023-02-06T14:34:21.848Z,-2.12
2023-02-06T14:39:48.626Z,-2.15
2023-02-06T14:44:59.358Z,-2.19
2023-02-06T14:50:09.226Z,-2.22
2023-02-06T14:55:37.774Z,-2.29
2023-02-06T15:00:44.282Z,-2.35
2023-02-06T15:06:04.533Z,-2.43
2023-02-06T15:11:22.661Z,-2.49
2023-02-06T15:16:30.703Z,-2.56
2023-02-06T15:21:39.133Z,-2.59
2023-02-06T15:26:56.203Z,-2.63
2023-02-06T15:32:07.146Z,-2.66
2023-02-06T15:37:27.670Z,-2.78
2023-02-06T15:43:10.051Z,-2.91
2023-02-06T15:48:36.622Z,-3.03
2023-02-06T15:53:48.469Z,-3.20
2023-02-06T15:59:00.046Z,-3.29
2023-02-06T16:04:14.271Z,-3.44
2023-02-06T16:09:24.401Z,-3.41
2023-02-06T16:14:37.353Z,-3.52
2023-02-06T16:19:53.592Z,-3.62
2023-02-06T16:30:33.469Z,-3.79
2023-02-06T16:35:40.615Z,-3.81
2023-02-06T16:40:47.088Z,-3.81
2023-02-06T16:45:55.514Z,-3.91
2023-02-06T16:51:02.528Z,-3.96
2023-02-06T16:56:15.326Z,-4.11
2023-02-06T17:01:29.861Z,-4.18
2023-02-06T17:06:39.289Z,-4.24
2023-02-06T17:11:46.650Z,-4.23
2023-02-06T17:16:56.434Z,-4.36
2023-02-06T17:22:03.514Z,-4.52
2023-02-06T17:27:15.251Z,-4.49
2023-02-06T17:32:23.877Z,-4.72
2023-02-06T17:37:31.432Z,-4.82
2023-02-06T17:42:38.515Z,-4.95
2023-02-06T17:47:48.166Z,-5.06
2023-02-06T17:52:57.064Z,-5.06
2023-02-06T17:58:05.189Z,-5.13
2023-02-06T18:03:17.334Z,-5.26
2023-02-06T18:08:24.732Z,-5.38
2023-02-06T18:13:31.202Z,-5.31
2023-02-06T18:18:41.907Z,-5.36
2023-02-06T18:23:51.115Z,-5.38
2023-02-06T18:28:59.271Z,-5.42
2023-02-06T18:34:10.393Z,-5.40
2023-02-06T18:39:18.936Z,-5.40
2023-02-06T18:44:30.108Z,-5.74
2023-02-06T18:49:40.832Z,-5.75
2023-02-06T18:54:54.933Z,-5.84
2023-02-06T19:00:10.148Z,-6.01
2023-02-06T19:05:21.239Z,-5.98
2023-02-06T19:10:30.094Z,-6.19
2023-02-06T19:15:39.237Z,-6.17
2023-02-06T19:20:49.790Z,-6.07
2023-02-06T19:25:57.583Z,-6.12
2023-02-06T19:31:09.561Z,-6.03
2023-02-06T19:36:26.317Z,-6.01
2023-02-06T19:41:37.332Z,-6.08
2023-02-06T19:46:45.993Z,-6.03
2023-02-06T19:51:57.932Z,-6.18
2023-02-06T19:57:05.619Z,-6.49
2023-02-06T20:02:20.724Z,-6.52
2023-02-06T20:07:32.253Z,-6.48
2023-02-06T20:12:42.144Z,-6.39
2023-02-06T20:17:53.073Z,-6.57
2023-02-06T20:23:03.302Z,-6.51
2023-02-06T20:28:13.685Z,-6.42
2023-02-06T20:33:23.721Z,-6.39
2023-02-06T20:38:36.323Z,-6.47
2023-02-06T20:43:47.982Z,-6.60
2023-02-06T20:49:00.854Z,-6.67
2023-02-06T20:54:12.350Z,-6.56
2023-02-06T20:59:24.542Z,-6.51
2023-02-06T21:04:35.944Z,-6.69
2023-02-06T21:09:44.493Z,-6.66
2023-02-06T21:14:52.508Z,-6.68
2023-02-06T21:19:59.197Z,-6.85
2023-02-06T21:25:08.418Z,-6.84
2023-02-06T21:30:16.472Z,-6.95
2023-02-06T21:35:23.608Z,-7.26
2023-02-06T21:40:31.396Z,-7.10
2023-02-06T21:45:40.742Z,-7.01
2023-02-06T21:50:47.033Z,-6.84
2023-02-06T21:55:54.617Z,-6.81
2023-02-06T22:01:00.929Z,-6.62
2023-02-06T22:06:08.950Z,-6.49
2023-02-06T22:11:20.486Z,-6.39
2023-02-06T22:16:28.097Z,-6.27
2023-02-06T22:21:35.407Z,-6.22
2023-02-06T22:26:43.655Z,-6.12
2023-02-06T22:31:50.101Z,-5.98
2023-02-06T22:36:56.539Z,-5.89
2023-02-06T22:42:04.216Z,-5.77
2023-02-06T22:47:10.608Z,-5.69
2023-02-06T22:52:34.389Z,-5.59
2023-02-06T22:57:42.267Z,-5.45
2023-02-06T23:02:48.548Z,-5.36
2023-02-06T23:07:54.745Z,-5.27
2023-02-06T23:13:02.498Z,-5.19
2023-02-06T23:18:08.899Z,-5.15
2023-02-06T23:23:15.284Z,-5.07
2023-02-06T23:28:24.350Z,-5.01
2023-02-06T23:33:30.398Z,-4.97
2023-02-06T23:38:36.667Z,-4.94
2023-02-06T23:43:45.110Z,-4.91
2023-02-06T23:48:52.481Z,-4.85
2023-02-06T23:53:58.742Z,-4.81
2023-02-06T23:59:08.684Z,-4.79
